< < Back
Terminal Aerodrome Forecast


Current Version              Previous Versions:   1  2  3  4  5  6  7  8  9  

Terminal Aerodrome Forecast

530
FTUS42 KGSP 011747
TAFGSP
TAF
KGSP 011747Z 0118/0218 24008KT P6SM BKN045
     FM012100 23009KT P6SM VCTS BKN045CB
     FM020200 27005KT P6SM -SHRA OVC060
      TEMPO 0202/0204 4SM TSRA OVC040CB
     FM020400 26004KT P6SM VCSH OVC060
     FM020600 24004KT P6SM OVC050
     FM021500 23008KT P6SM BKN025 PROB30 0215/0217 4SM TSRA
      BKN015CB=

Latest METAR

856
SAUS70 KWBC 021200
MTRGSP
METAR KGSP 021153Z 25006KT 10SM OVC090 22/18 A2998 RMK AO2 SLP140
T02220183 10222 20217 53004


USA.gov is the U.S. government's official web portal to all federal, state and local government web resources and services.